»·PEaware :: SWR74 KLAS-KLAX

SWR74 :: KLAS-KLAX

FLIGHT INFORMATION

Flight Status: Arrived
Operator:
Swiss Airlines
More flights by this operator :: More flights under this callsign
Pilot: Mounir D. (11581)
Aircraft: BOEING 777-200
(B772)
More flights by this aircraft type
Origin: KLAS McCarran Intl
United States
Destination: KLAX Los Angeles Intl
United States
More flights between these airports :: More routes between these airports
Route: BOACH8 RIKII SHTNR ANJLL4
File this flight plan on PilotEdge
Remarks:
Altitude:
(Current/Filed)
30,000ft
Speed:
(Current/Filed)
450kts
Departed: 16-Feb-20 01:13 PM
Arrived: 16-Feb-20 01:51 PM
Distance/Time
Traveled:
205nm/0:38
Distance/Time
To Go:
Arrived

Flight Plot

Page will automatically refresh every two minutes.


Map Options




Map Legend


Flown Route
Filed Route
Departure Airport
Arrival Airport
Navaid (VOR, NDB)
Fix

Horizontal Profiles

Position Reports

Time Latitude Longitude Heading Altitude Ground
Speed
16-Feb-20 12:31 36.079778 -115.135295 356 2128ft 0kts
16-Feb-20 12:32 36.079778 -115.135295 356 2128ft 0kts
16-Feb-20 12:33 36.079778 -115.135295 356 2128ft 0kts
16-Feb-20 12:34 36.079778 -115.135295 356 2128ft 0kts
16-Feb-20 12:35 36.079778 -115.135295 356 2128ft 0kts
16-Feb-20 12:36 36.079778 -115.135295 356 2128ft 0kts
16-Feb-20 12:37 36.079778 -115.135295 356 2128ft 0kts
16-Feb-20 12:38 36.079778 -115.135295 356 2128ft 0kts
16-Feb-20 12:39 36.079778 -115.135295 356 2128ft 0kts
16-Feb-20 12:40 36.079778 -115.135295 356 2128ft 0kts
16-Feb-20 12:41 36.079778 -115.135295 356 2128ft 0kts
16-Feb-20 12:42 36.079778 -115.135295 356 2128ft 0kts
16-Feb-20 12:43 36.079778 -115.135295 356 2128ft 0kts
16-Feb-20 12:44 36.079778 -115.135295 356 2128ft 0kts
16-Feb-20 12:45 36.079778 -115.135295 356 2128ft 0kts
16-Feb-20 12:46 36.079778 -115.135295 356 2128ft 0kts
16-Feb-20 12:47 36.079778 -115.135295 356 2128ft 0kts
16-Feb-20 12:48 36.079778 -115.135295 356 2128ft 0kts
16-Feb-20 12:49 36.079778 -115.135295 356 2128ft 0kts
16-Feb-20 12:50 36.079778 -115.135295 356 2128ft 0kts
16-Feb-20 12:51 36.079778 -115.135295 356 2128ft 0kts
16-Feb-20 12:52 36.079778 -115.135295 356 2128ft 0kts
16-Feb-20 12:53 36.079778 -115.135295 356 2128ft 0kts
16-Feb-20 12:54 36.079778 -115.135295 356 2128ft 0kts
16-Feb-20 12:55 36.079778 -115.135295 356 2128ft 0kts
16-Feb-20 12:56 36.079778 -115.135295 356 2128ft 0kts
16-Feb-20 12:57 36.079778 -115.135295 356 2128ft 0kts
16-Feb-20 12:58 36.079778 -115.135295 356 2128ft 0kts
16-Feb-20 12:59 36.079778 -115.135295 356 2128ft 0kts
16-Feb-20 13:00 36.079778 -115.135295 356 2128ft 0kts
16-Feb-20 13:01 36.079778 -115.135295 356 2128ft 0kts
16-Feb-20 13:02 36.079778 -115.135295 356 2128ft 0kts
16-Feb-20 13:03 36.079778 -115.135295 356 2128ft 0kts
16-Feb-20 13:04 36.079778 -115.135295 356 2128ft 0kts
16-Feb-20 13:05 36.079448 -115.135311 16 2128ft 2kts
16-Feb-20 13:06 36.079111 -115.135960 112 2128ft 2kts
16-Feb-20 13:07 36.079190 -115.136144 128 2128ft 0kts
16-Feb-20 13:08 36.079164 -115.136087 118 2128ft 5kts
16-Feb-20 13:09 36.078259 -115.133494 90 2128ft 9kts
16-Feb-20 13:10 36.078226 -115.128706 89 2128ft 22kts
16-Feb-20 13:11 36.077680 -115.122300 105 2128ft 16kts
16-Feb-20 13:12 36.076208 -115.142517 268 2454ft 211kts
16-Feb-20 13:13 36.076001 -115.221580 265 6864ft 261kts
16-Feb-20 13:14 36.023699 -115.279298 195 6969ft 274kts
16-Feb-20 13:15 35.950310 -115.304494 188 7574ft 282kts
16-Feb-20 13:16 35.872437 -115.313255 189 13264ft 290kts
16-Feb-20 13:17 35.783271 -115.306820 179 17398ft 336kts
16-Feb-20 13:18 35.682438 -115.295381 181 19137ft 412kts
16-Feb-20 13:19 35.561984 -115.299734 186 21873ft 450kts
16-Feb-20 13:20 35.444067 -115.345330 212 25428ft 455kts
16-Feb-20 13:21 35.333012 -115.427719 213 28782ft 477kts
16-Feb-20 13:22 35.216620 -115.511669 213 30156ft 491kts
16-Feb-20 13:23 35.105907 -115.606591 223 30145ft 487kts
16-Feb-20 13:24 35.010277 -115.723491 228 30146ft 487kts
16-Feb-20 13:25 34.917055 -115.843185 227 30150ft 488kts
16-Feb-20 13:26 34.822862 -115.962469 227 30157ft 490kts
16-Feb-20 13:27 34.728517 -116.082118 227 30157ft 491kts
16-Feb-20 13:28 34.634166 -116.201937 227 30175ft 491kts
16-Feb-20 13:29 34.539809 -116.322094 227 30190ft 490kts
16-Feb-20 13:30 34.448888 -116.436970 229 28549ft 460kts
16-Feb-20 13:31 34.380036 -116.562966 245 26152ft 434kts
16-Feb-20 13:32 34.330532 -116.686654 244 25308ft 387kts
16-Feb-20 13:33 34.283963 -116.803046 245 24322ft 386kts
16-Feb-20 13:34 34.236876 -116.919395 245 24275ft 386kts
16-Feb-20 13:35 34.195541 -117.038460 254 24230ft 385kts
16-Feb-20 13:36 34.162934 -117.161145 252 24175ft 384kts
16-Feb-20 13:37 34.129552 -117.282580 252 23196ft 377kts
16-Feb-20 13:38 34.098215 -117.397061 253 22084ft 352kts
16-Feb-20 13:39 34.070253 -117.510075 259 20188ft 337kts
16-Feb-20 13:40 34.051516 -117.625215 260 15242ft 354kts
16-Feb-20 13:41 34.031266 -117.744544 261 10528ft 385kts
16-Feb-20 13:42 34.011343 -117.864449 262 8953ft 350kts
16-Feb-20 13:43 33.993261 -117.969443 261 7396ft 297kts
16-Feb-20 13:44 33.977325 -118.061030 260 5800ft 279kts
16-Feb-20 13:45 33.962335 -118.147484 260 4091ft 254kts
16-Feb-20 13:46 33.953412 -118.225675 263 2657ft 221kts
16-Feb-20 13:47 33.946407 -118.294187 262 1612ft 182kts
16-Feb-20 13:48 33.940739 -118.346610 261 576ft 138kts
16-Feb-20 13:49 33.936605 -118.389393 261 140ft 95kts
16-Feb-20 13:50 33.936645 -118.400165 268 139ft 0kts
16-Feb-20 13:51 33.936696 -118.403472 301 139ft 18kts
16-Feb-20 13:52 33.938140 -118.406589 263 139ft 11kts
16-Feb-20 13:53 33.940040 -118.408044 356 139ft 8kts
16-Feb-20 13:54 33.940571 -118.408748 261 139ft 1kts
16-Feb-20 13:55 33.940554 -118.408941 264 139ft 0kts
16-Feb-20 13:56 33.940554 -118.408941 264 139ft 0kts
16-Feb-20 13:57 33.940554 -118.408941 264 139ft 0kts
16-Feb-20 13:58 33.940554 -118.408941 264 139ft 0kts
16-Feb-20 13:59 33.940554 -118.408941 264 139ft 0kts
16-Feb-20 14:00 33.940554 -118.408941 264 139ft 0kts
16-Feb-20 14:01 33.940554 -118.408941 264 139ft 0kts
16-Feb-20 14:02 33.940554 -118.408941 264 139ft 0kts
16-Feb-20 14:03 33.940554 -118.408941 264 139ft 0kts
16-Feb-20 14:04 33.940554 -118.408941 264 139ft 0kts

Navigation Log

Ident Type
Flight plan parsing failed, navigation log unavailable